Time;durP1;ratioP1;P1;durP2;ratioP2;P2;SDS_P1;SDS_P2;PMS_P1;PMS_P2;Temp;Humidity;BMP_temperature;BMP_pressure;BME280_temperature;BME280_humidity;BME280_pressure;Samples;Min_cycle;Max_cycle;Signal;HPM_P1;HPM_P2
2023/02/19 00:01:37;;;;;;;2.72;2.53;;;;;;;10.44;76.38;97147.63;5019379;28;20602;-78
2023/02/19 00:04:06;;;;;;;2.53;2.33;;;;;;;10.44;76.32;97136.38;5019144;28;20512;-77
2023/02/19 00:06:35;;;;;;;2.80;2.60;;;;;;;10.45;76.40;97148.44;5018763;28;20603;-77
2023/02/19 00:09:04;;;;;;;3.58;2.60;;;;;;;10.43;76.43;97147.78;5018123;28;20046;-77
2023/02/19 00:11:34;;;;;;;3.03;2.83;;;;;;;10.43;76.38;97145.16;5021616;28;20058;-78
2023/02/19 00:14:03;;;;;;;3.45;2.88;;;;;;;10.42;76.45;97154.00;5018590;28;20050;-78
2023/02/19 00:16:32;;;;;;;2.88;2.67;;;;;;;10.43;76.55;97142.56;5019011;28;20050;-77
2023/02/19 00:19:02;;;;;;;2.58;2.38;;;;;;;10.44;76.28;97146.81;5018362;28;20042;-77
2023/02/19 00:21:30;;;;;;;2.22;2.10;;;;;;;10.43;76.53;97145.16;5019247;28;20052;-78
2023/02/19 00:24:00;;;;;;;2.55;2.42;;;;;;;10.43;76.54;97139.97;5018518;28;20046;-78
2023/02/19 00:26:28;;;;;;;1.98;1.88;;;;;;;10.45;76.51;97138.84;5021096;28;20445;-76
2023/02/19 00:28:57;;;;;;;2.63;2.47;;;;;;;10.46;76.33;97134.41;5020426;28;20050;-77
2023/02/19 00:31:27;;;;;;;3.10;2.67;;;;;;;10.46;76.59;97134.41;5022463;28;20053;-77
2023/02/19 00:34:00;;;;;;;2.70;2.50;;;;;;;10.46;76.48;97137.03;5020446;28;20046;-78
2023/02/19 00:36:29;;;;;;;2.88;2.67;;;;;;;10.47;76.68;97138.63;5020965;28;20057;-79
2023/02/19 00:38:56;;;;;;;2.83;2.63;;;;;;;10.48;76.45;97137.69;5020824;28;20085;-77
2023/02/19 00:41:24;;;;;;;2.80;2.60;;;;;;;10.45;76.77;97138.00;5021484;28;20056;-78
2023/02/19 00:43:54;;;;;;;2.78;2.58;;;;;;;10.45;76.57;97138.84;5020592;28;20236;-78
2023/02/19 00:46:25;;;;;;;2.35;2.17;;;;;;;10.47;76.67;97138.63;5020049;28;20064;-77
2023/02/19 00:48:53;;;;;;;2.72;2.53;;;;;;;10.47;76.24;97136.88;5019381;28;20562;-78
2023/02/19 00:51:22;;;;;;;2.53;2.40;;;;;;;10.48;76.62;97137.69;5021082;28;20053;-79
2023/02/19 00:53:50;;;;;;;2.45;2.25;;;;;;;10.48;76.61;97142.91;5022386;28;20057;-78
2023/02/19 00:56:18;;;;;;;2.67;2.47;;;;;;;10.48;76.48;97132.47;5024867;28;20424;-78
2023/02/19 00:58:46;;;;;;;3.63;3.33;;;;;;;10.44;76.25;97134.59;5023559;28;20060;-77
2023/02/19 01:01:14;;;;;;;2.80;2.60;;;;;;;10.40;76.54;97145.50;5025096;28;20223;-78
2023/02/19 01:03:43;;;;;;;2.55;2.35;;;;;;;10.40;76.67;97140.31;5023423;28;20149;-80
2023/02/19 01:06:13;;;;;;;3.05;2.83;;;;;;;10.41;76.61;97136.72;5023532;28;20046;-78
2023/02/19 01:08:41;;;;;;;3.38;3.08;;;;;;;10.41;76.28;97137.53;5022096;28;20361;-77
2023/02/19 01:11:10;;;;;;;3.38;3.13;;;;;;;10.39;76.54;97133.47;5023301;28;20057;-78
2023/02/19 01:13:38;;;;;;;2.97;2.78;;;;;;;10.36;76.74;97123.34;5022768;28;20053;-78
2023/02/19 01:16:08;;;;;;;2.30;2.20;;;;;;;10.34;77.06;97120.09;5022223;28;20056;-79
2023/02/19 01:18:36;;;;;;;4.03;3.47;;;;;;;10.35;76.86;97111.31;5021607;28;20046;-78
2023/02/19 01:21:07;;;;;;;2.60;2.40;;;;;;;10.38;77.12;97110.97;5021745;28;20054;-80
2023/02/19 01:23:36;;;;;;;5.13;3.28;;;;;;;10.42;76.72;97097.41;5021159;28;20412;-77
2023/02/19 01:26:05;;;;;;;2.95;2.63;;;;;;;10.45;76.88;97093.66;5020220;28;20062;-78
2023/02/19 01:28:32;;;;;;;3.15;2.90;;;;;;;10.46;76.62;97093.50;5017967;28;20056;-79
2023/02/19 01:31:01;;;;;;;2.80;2.42;;;;;;;10.48;76.74;97099.34;5018480;28;20137;-77
2023/02/19 01:33:29;;;;;;;3.75;3.17;;;;;;;10.50;76.54;97078.34;5048439;22;20135;-77
2023/02/19 01:35:57;;;;;;;3.17;2.97;;;;;;;10.51;76.61;97087.78;5032185;28;20052;-77
2023/02/19 01:38:26;;;;;;;3.38;3.08;;;;;;;10.51;76.26;97080.75;5032100;28;20430;-77
2023/02/19 01:40:55;;;;;;;2.83;2.63;;;;;;;10.53;76.40;97083.19;5032689;28;20419;-77
2023/02/19 01:43:23;;;;;;;3.55;3.25;;;;;;;10.55;76.21;97068.19;5033572;28;20050;-77
2023/02/19 01:45:51;;;;;;;3.08;2.88;;;;;;;10.55;76.14;97049.13;5034691;28;20049;-77
2023/02/19 01:48:23;;;;;;;3.03;2.83;;;;;;;10.55;75.89;97029.06;5034397;28;20045;-78
2023/02/19 01:50:56;;;;;;;5.75;3.50;;;;;;;10.54;75.87;97053.53;5034928;28;20055;-77
2023/02/19 01:53:29;;;;;;;3.50;3.20;;;;;;;10.55;75.95;97055.16;5034552;28;20053;-77
2023/02/19 01:56:00;;;;;;;3.40;3.10;;;;;;;10.51;75.90;97065.09;5034860;28;20049;-78
2023/02/19 01:58:31;;;;;;;4.63;3.80;;;;;;;10.46;75.90;97062.19;5034038;28;20076;-77
2023/02/19 02:01:00;;;;;;;3.60;3.35;;;;;;;10.44;75.85;97061.56;5034424;28;20140;-77
2023/02/19 02:03:29;;;;;;;4.30;3.17;;;;;;;10.43;75.63;97035.63;5034181;28;20049;-77
2023/02/19 02:06:01;;;;;;;3.60;3.30;;;;;;;10.42;75.76;97024.41;5034056;28;20488;-77
2023/02/19 02:11:17;;;;;;;4.40;4.00;;;;;;;10.35;75.54;97033.88;5034309;28;20496;-78
2023/02/19 02:13:46;;;;;;;4.10;3.80;;;;;;;10.31;75.93;97032.59;5034054;28;20128;-78
2023/02/19 02:16:25;;;;;;;4.63;3.15;;;;;;;10.30;76.59;97037.00;5033902;28;20061;-77
2023/02/19 02:19:04;;;;;;;3.40;3.10;;;;;;;10.30;76.51;97036.19;5033703;28;20064;-78
2023/02/19 02:21:57;;;;;;;4.18;3.83;;;;;;;10.32;76.46;97036.84;5033985;28;20056;-77
2023/02/19 02:24:38;;;;;;;;;;;;;;;10.27;76.48;97034.69;5034834;28;20060;-77
2023/02/19 02:27:22;;;;;;;2.88;2.67;;;;;;;10.22;76.42;97041.41;5033763;28;20008;-77
2023/02/19 02:30:21;;;;;;;2.90;2.70;;;;;;;10.21;76.74;97027.56;5033339;28;20060;-77
2023/02/19 02:32:56;;;;;;;3.00;2.45;;;;;;;10.18;76.37;97027.88;5017359;28;20050;-77
2023/02/19 02:35:30;;;;;;;3.97;3.10;;;;;;;10.16;76.44;97018.59;5033619;28;20053;-76
2023/02/19 02:38:02;;;;;;;3.78;3.47;;;;;;;10.12;76.87;97028.56;5033085;28;20167;-77
2023/02/19 02:40:30;;;;;;;3.00;2.70;;;;;;;10.09;76.83;97023.69;5034168;28;20050;-76
2023/02/19 02:42:59;;;;;;;4.22;3.17;;;;;;;10.06;76.65;97018.81;5033541;28;20448;-77
2023/02/19 02:45:38;;;;;;;2.72;2.53;;;;;;;10.05;76.87;97027.59;5032863;28;20049;-77
2023/02/19 02:48:18;;;;;;;3.70;2.88;;;;;;;10.04;77.15;97026.00;5031841;28;20065;-77
2023/02/19 02:50:50;;;;;;;3.95;3.10;;;;;;;10.02;77.17;97022.75;5033301;28;20700;-77
2023/02/19 02:56:10;;;;;;;2.80;2.60;;;;;;;10.00;77.17;97022.91;5033193;28;20046;-77
2023/02/19 02:58:38;;;;;;;3.33;3.00;;;;;;;9.99;77.21;97010.88;5032256;28;20068;-77
2023/02/19 03:04:02;;;;;;;3.22;2.83;;;;;;;10.00;77.58;97003.84;5032871;28;20478;-77
2023/02/19 03:06:33;;;;;;;3.08;2.78;;;;;;;10.00;77.28;96999.44;5033042;28;20056;-77
2023/02/19 03:09:08;;;;;;;3.13;2.92;;;;;;;9.99;77.22;96997.00;5021377;28;20392;-76
2023/02/19 03:20:10;;;;;;;3.30;3.00;;;;;;;9.83;78.00;97003.88;5031639;28;19921;-77
2023/02/19 03:22:40;;;;;;;3.60;2.92;;;;;;;9.83;77.86;96992.66;5032039;28;20133;-77
2023/02/19 03:28:00;;;;;;;3.25;2.95;;;;;;;9.80;78.00;96996.41;5031115;28;20088;-77
2023/02/19 03:30:31;;;;;;;4.13;3.13;;;;;;;9.80;78.74;97003.41;5032132;28;20051;-77
2023/02/19 03:33:06;;;;;;;3.65;2.90;;;;;;;9.80;78.52;96996.41;5031700;28;20056;-77
2023/02/19 03:35:38;;;;;;;3.22;2.35;;;;;;;9.82;78.51;97001.47;5032457;28;20049;-78
2023/02/19 03:38:10;;;;;;;2.88;2.67;;;;;;;9.83;78.32;96998.66;5032091;28;20597;-77
2023/02/19 03:40:47;;;;;;;2.88;2.67;;;;;;;9.79;78.90;96994.75;5032774;28;20132;-78
2023/02/19 03:43:21;;;;;;;3.33;2.50;;;;;;;9.80;78.80;96988.59;5035169;28;20045;-77
2023/02/19 03:45:59;;;;;;;3.35;2.70;;;;;;;9.78;78.89;96987.94;5047523;28;20080;-78
2023/02/19 03:48:34;;;;;;;2.97;2.60;;;;;;;9.78;78.89;96981.94;5041375;28;20512;-77
2023/02/19 03:51:11;;;;;;;2.70;2.50;;;;;;;9.76;78.76;96982.09;5032805;28;20517;-78
2023/02/19 03:53:49;;;;;;;2.78;2.50;;;;;;;9.75;78.99;96977.03;5032795;28;20049;-78
2023/02/19 03:56:26;;;;;;;2.42;2.22;;;;;;;9.74;78.95;96991.84;5032707;28;20064;-77
2023/02/19 03:58:59;;;;;;;3.17;2.53;;;;;;;9.75;78.87;96990.91;5031649;28;20064;-77
2023/02/19 04:01:30;;;;;;;2.88;2.30;;;;;;;9.72;78.78;96988.59;5032459;28;20049;-77
2023/02/19 04:04:06;;;;;;;2.00;1.90;;;;;;;9.71;79.14;96989.59;5032146;28;20051;-77
2023/02/19 04:06:36;;;;;;;2.63;2.17;;;;;;;9.72;78.85;96996.41;5033639;28;20057;-77
2023/02/19 04:09:08;;;;;;;2.38;2.00;;;;;;;9.72;79.05;96999.03;5031665;28;20053;-78
2023/02/19 04:11:37;;;;;;;3.07;2.40;;;;;;;9.74;78.93;97004.88;5032119;28;20052;-77
2023/02/19 04:14:09;;;;;;;1.95;1.73;;;;;;;9.75;78.65;97022.16;5032209;28;20056;-78
2023/02/19 04:16:41;;;;;;;1.88;1.77;;;;;;;9.73;78.97;97008.47;5032073;28;20052;-77
2023/02/19 04:19:16;;;;;;;1.83;1.73;;;;;;;9.73;79.08;97003.28;5031652;28;20423;-77
2023/02/19 04:21:46;;;;;;;2.28;2.05;;;;;;;9.73;79.01;97008.47;5032197;28;20422;-77
2023/02/19 04:24:18;;;;;;;2.25;1.85;;;;;;;9.76;79.03;97018.56;5032332;28;20063;-77
2023/02/19 04:26:46;;;;;;;4.28;1.90;;;;;;;9.75;78.87;97011.75;5032072;28;20057;-77
2023/02/19 04:29:14;;;;;;;1.63;1.52;;;;;;;9.75;78.91;97019.56;5031180;28;20056;-76
2023/02/19 04:31:42;;;;;;;2.03;1.90;;;;;;;9.78;78.88;97021.00;5032172;28;20052;-77
2023/02/19 04:34:10;;;;;;;1.90;1.58;;;;;;;9.76;78.72;97023.78;5032200;28;20053;-77
2023/02/19 04:36:38;;;;;;;1.45;1.35;;;;;;;9.76;78.89;97030.78;5032352;28;20053;-77
2023/02/19 04:39:06;;;;;;;1.80;1.30;;;;;;;9.73;78.73;97039.75;5031441;28;20419;-77
2023/02/19 04:41:34;;;;;;;1.00;0.95;;;;;;;9.70;78.80;97037.44;5032037;28;20080;-78
2023/02/19 04:44:02;;;;;;;1.48;1.38;;;;;;;9.66;78.87;97050.00;5031501;28;20061;-77
2023/02/19 04:46:29;;;;;;;0.80;0.80;;;;;;;9.64;78.86;97051.13;5032124;28;20053;-77
2023/02/19 04:48:57;;;;;;;0.60;0.60;;;;;;;9.61;79.04;97043.66;5031018;28;20103;-77
2023/02/19 04:51:26;;;;;;;0.45;0.45;;;;;;;9.58;79.16;97051.81;5031867;28;20061;-77
2023/02/19 04:53:55;;;;;;;0.68;0.65;;;;;;;9.57;79.37;97056.19;5031793;28;20061;-77
2023/02/19 04:56:22;;;;;;;0.40;0.40;;;;;;;9.58;79.28;97060.44;5031889;28;20067;-77
2023/02/19 04:58:50;;;;;;;1.08;0.40;;;;;;;9.58;79.33;97067.44;5031140;28;20488;-77
2023/02/19 05:01:17;;;;;;;0.40;0.40;;;;;;;9.59;79.15;97069.06;5033468;28;20041;-77
2023/02/19 05:03:45;;;;;;;0.40;0.40;;;;;;;9.63;79.09;97072.97;5034314;28;20045;-78
2023/02/19 05:06:14;;;;;;;0.50;0.50;;;;;;;9.64;78.99;97078.00;5032944;28;20068;-77
2023/02/19 05:08:43;;;;;;;0.20;0.20;;;;;;;9.65;78.89;97076.22;5031918;28;20087;-77
2023/02/19 05:11:12;;;;;;;0.32;0.32;;;;;;;9.64;78.88;97074.56;5032428;28;20500;-78
2023/02/19 05:13:40;;;;;;;0.80;0.28;;;;;;;9.65;78.57;97074.41;5035143;28;20081;-77
2023/02/19 05:16:12;;;;;;;0.20;0.20;;;;;;;9.65;78.45;97076.22;5035341;28;20120;-77
2023/02/19 05:18:40;;;;;;;0.40;0.10;;;;;;;9.60;78.20;97081.09;5034645;28;20056;-78
2023/02/19 05:21:08;;;;;;;0.10;0.10;;;;;;;9.57;78.43;97076.22;5035094;28;20136;-77
2023/02/19 05:23:36;;;;;;;0.20;0.20;;;;;;;9.54;78.20;97072.16;5035424;28;20496;-77
2023/02/19 05:26:06;;;;;;;0.10;0.10;;;;;;;9.49;77.88;97092.66;5035829;28;20053;-76
2023/02/19 05:28:34;;;;;;;2.00;0.22;;;;;;;9.45;77.94;97083.56;5034402;28;20136;-77
2023/02/19 05:31:06;;;;;;;0.10;0.10;;;;;;;9.41;78.36;97088.25;5034844;28;20048;-77
2023/02/19 05:33:34;;;;;;;0.20;0.20;;;;;;;9.38;78.18;97088.59;5034973;28;20053;-77
2023/02/19 05:36:05;;;;;;;0.10;0.10;;;;;;;9.35;78.40;97103.72;5034846;28;20060;-78
2023/02/19 05:38:33;;;;;;;0.17;0.17;;;;;;;9.32;78.19;97107.47;5036389;28;20053;-76
2023/02/19 05:41:09;;;;;;;0.10;0.10;;;;;;;9.31;78.62;97102.41;5056838;28;20050;-77
2023/02/19 05:43:37;;;;;;;0.20;0.20;;;;;;;9.26;77.80;97092.47;5056129;28;20045;-77
2023/02/19 05:46:05;;;;;;;0.10;0.10;;;;;;;9.18;77.97;97103.72;5055328;28;20064;-76
2023/02/19 05:48:33;;;;;;;0.22;0.22;;;;;;;9.13;78.37;97099.94;5046000;28;20522;-77
2023/02/19 05:51:02;;;;;;;0.20;0.20;;;;;;;9.11;78.59;97096.69;5035517;28;20127;-77
2023/02/19 05:53:30;;;;;;;1.27;0.20;;;;;;;9.07;78.31;97094.41;5035369;28;20100;-77
2023/02/19 05:55:59;;;;;;;0.13;0.13;;;;;;;9.06;78.35;97094.56;5034809;28;20056;-77
2023/02/19 05:58:28;;;;;;;0.40;0.30;;;;;;;9.04;78.44;97097.31;5034027;28;20046;-77
2023/02/19 06:00:56;;;;;;;0.43;0.20;;;;;;;9.00;78.29;97090.81;5034121;28;20510;-77
2023/02/19 06:03:23;;;;;;;0.40;0.40;;;;;;;8.99;78.13;97089.19;5034498;28;20085;-77
2023/02/19 06:05:51;;;;;;;0.60;0.60;;;;;;;9.00;78.12;97085.59;5034256;28;20569;-77
2023/02/19 06:08:18;;;;;;;0.82;0.50;;;;;;;8.99;77.73;97093.59;5033375;28;20087;-77
2023/02/19 06:10:46;;;;;;;0.82;0.82;;;;;;;8.99;77.25;97104.81;5034200;28;20064;-78
2023/02/19 06:13:14;;;;;;;0.43;0.43;;;;;;;8.95;77.19;97093.06;5034119;28;20088;-78
2023/02/19 06:15:45;;;;;;;0.47;0.35;;;;;;;8.95;77.15;97106.09;5034171;28;20049;-77
2023/02/19 06:18:13;;;;;;;0.70;0.70;;;;;;;8.92;77.13;97110.78;5033817;28;20057;-77
2023/02/19 06:20:40;;;;;;;0.32;0.32;;;;;;;8.91;77.37;97107.38;5034143;28;20057;-78
2023/02/19 06:23:08;;;;;;;0.50;0.50;;;;;;;8.92;77.15;97098.59;5034256;28;20055;-77
2023/02/19 06:25:35;;;;;;;0.50;0.50;;;;;;;8.92;77.04;97098.59;5034048;28;20053;-77
2023/02/19 06:28:03;;;;;;;0.40;0.40;;;;;;;8.93;76.55;97110.63;5032904;28;20057;-77
2023/02/19 06:30:31;;;;;;;0.65;0.63;;;;;;;8.92;76.37;97103.81;5031958;28;20045;-77
2023/02/19 06:33:00;;;;;;;0.50;0.50;;;;;;;8.90;76.06;97110.97;5033769;28;20091;-77
2023/02/19 06:35:27;;;;;;;0.43;0.43;;;;;;;8.90;75.90;97121.38;5045449;28;20451;-76
2023/02/19 06:37:55;;;;;;;0.30;0.30;;;;;;;8.90;76.11;97126.56;5043017;28;20109;-77
2023/02/19 06:40:22;;;;;;;0.32;0.32;;;;;;;8.90;75.88;97126.56;5035245;28;20060;-76
2023/02/19 06:42:50;;;;;;;0.50;0.50;;;;;;;8.90;75.96;97136.97;5033719;28;20052;-76
2023/02/19 06:45:17;;;;;;;0.40;0.40;;;;;;;8.89;76.05;97130.13;5033559;28;20060;-76
2023/02/19 06:47:45;;;;;;;0.60;0.60;;;;;;;8.89;76.26;97127.53;5033307;28;20136;-77
2023/02/19 06:50:14;;;;;;;1.60;0.73;;;;;;;8.88;75.86;97149.31;5033512;28;20057;-76
2023/02/19 06:52:41;;;;;;;0.80;0.70;;;;;;;8.86;76.02;97151.28;5033561;28;20041;-77
2023/02/19 06:55:09;;;;;;;0.65;0.50;;;;;;;8.86;76.08;97161.69;5033657;28;20080;-77
2023/02/19 06:57:36;;;;;;;0.40;0.40;;;;;;;8.87;75.77;97158.09;5033475;28;20053;-76
2023/02/19 07:00:05;;;;;;;1.00;0.30;;;;;;;8.88;75.67;97170.16;5032599;28;20049;-77
2023/02/19 07:02:32;;;;;;;0.35;0.35;;;;;;;8.87;75.56;97171.91;5033420;28;20055;-78
2023/02/19 07:05:00;;;;;;;0.40;0.40;;;;;;;8.85;75.70;97180.84;5033481;28;20132;-78
2023/02/19 07:07:28;;;;;;;0.40;0.40;;;;;;;8.84;75.51;97179.22;5033305;28;20049;-78
2023/02/19 07:09:56;;;;;;;0.52;0.52;;;;;;;8.82;75.60;97176.78;5032457;28;20442;-77
2023/02/19 07:12:23;;;;;;;0.40;0.40;;;;;;;8.83;75.60;97177.59;5031224;28;20045;-79
2023/02/19 07:14:51;;;;;;;0.43;0.43;;;;;;;8.84;75.77;97179.22;5033259;28;20415;-77
2023/02/19 07:17:19;;;;;;;0.40;0.40;;;;;;;8.79;75.38;97181.47;5037141;28;20083;-77
2023/02/19 07:19:46;;;;;;;0.52;0.52;;;;;;;8.77;75.60;97186.03;5031950;28;20049;-77
2023/02/19 07:22:14;;;;;;;0.52;0.50;;;;;;;8.76;75.46;97189.59;5032777;28;20049;-77
2023/02/19 07:24:43;;;;;;;0.75;0.70;;;;;;;8.78;75.05;97185.84;5033030;28;20128;-77
2023/02/19 07:27:14;;;;;;;0.40;0.40;;;;;;;8.86;75.54;97193.69;5033967;28;20077;-77
2023/02/19 07:29:41;;;;;;;0.52;0.52;;;;;;;8.88;75.01;97183.16;5032909;28;20049;-77
2023/02/19 07:32:09;;;;;;;0.43;0.40;;;;;;;8.86;74.43;97195.50;5033052;28;20396;-78
2023/02/19 07:34:36;;;;;;;0.35;0.35;;;;;;;8.85;74.95;97189.50;5032205;28;20055;-79
2023/02/19 07:37:04;;;;;;;0.63;0.47;;;;;;;8.86;74.48;97200.69;5032717;28;20419;-79
2023/02/19 07:39:32;;;;;;;0.60;0.38;;;;;;;8.87;74.48;97189.31;5032032;28;20594;-79
2023/02/19 07:42:01;;;;;;;0.88;0.85;;;;;;;8.89;74.66;97195.16;5036237;28;20464;-78
2023/02/19 07:44:28;;;;;;;0.60;0.47;;;;;;;8.87;74.67;97195.31;5032531;28;20046;-79
2023/02/19 07:46:56;;;;;;;0.63;0.50;;;;;;;8.89;75.21;97208.19;5033818;28;20077;-78
2023/02/19 07:49:24;;;;;;;0.63;0.35;;;;;;;8.91;74.79;97198.44;5042420;28;20068;-77
2023/02/19 07:51:51;;;;;;;1.35;0.30;;;;;;;8.87;74.65;97199.72;5065028;22;20053;-80
2023/02/19 07:54:19;;;;;;;0.63;0.50;;;;;;;8.80;74.67;97202.13;5058572;28;20048;-79
2023/02/19 07:56:47;;;;;;;0.30;0.30;;;;;;;8.78;74.87;97208.47;5056635;28;20045;-80
2023/02/19 07:59:18;;;;;;;0.22;0.20;;;;;;;8.83;75.22;97203.59;5059035;28;20485;-79
2023/02/19 08:04:30;;;;;;;0.47;0.30;;;;;;;8.93;74.33;97214.72;5058249;28;20051;-81
2023/02/19 08:06:58;;;;;;;1.08;0.30;;;;;;;8.93;74.16;97219.91;5057192;28;20056;-79
2023/02/19 08:09:25;;;;;;;1.10;0.60;;;;;;;8.93;73.95;97239.91;5058882;28;20056;-79
2023/02/19 08:14:40;;;;;;;0.50;0.50;;;;;;;8.92;73.67;97220.91;5058986;28;20045;-78
2023/02/19 08:17:07;;;;;;;0.85;0.63;;;;;;;8.90;74.19;97224.59;5058898;28;20056;-79
2023/02/19 08:19:35;;;;;;;1.05;0.45;;;;;;;8.89;73.97;97223.78;5057989;28;20049;-79
2023/02/19 08:22:02;;;;;;;0.55;0.40;;;;;;;8.85;74.11;97228.50;5058952;28;20136;-81
2023/02/19 08:24:32;;;;;;;0.60;0.60;;;;;;;8.84;74.12;97244.25;5058615;28;20068;-81
2023/02/19 08:27:00;;;;;;;1.55;0.60;;;;;;;8.80;74.07;97242.94;5062013;28;20056;-83
2023/02/19 08:29:27;;;;;;;0.68;0.68;;;;;;;8.76;74.07;97249.41;5074434;28;20063;-82
2023/02/19 08:31:56;;;;;;;0.47;0.47;;;;;;;8.75;74.24;97248.59;5074532;28;20143;-81
2023/02/19 08:34:24;;;;;;;0.40;0.40;;;;;;;8.76;74.05;97252.03;5055693;28;20049;-79
2023/02/19 08:36:51;;;;;;;0.60;0.60;;;;;;;8.79;74.35;97256.91;5057857;28;20079;-78
2023/02/19 08:39:19;;;;;;;0.82;0.82;;;;;;;8.81;74.13;97261.00;5057032;28;20083;-80
2023/02/19 08:41:47;;;;;;;0.70;0.65;;;;;;;8.84;74.40;97257.28;5057253;28;20099;-80
2023/02/19 08:44:15;;;;;;;0.60;0.60;;;;;;;8.87;74.13;97256.94;5054867;28;20464;-89
2023/02/19 08:46:43;;;;;;;1.08;0.98;;;;;;;8.93;74.12;97263.34;5054937;28;20115;-83
2023/02/19 08:49:12;;;;;;;0.55;0.55;;;;;;;8.91;74.13;97273.06;5057851;28;20106;-85
2023/02/19 08:51:39;;;;;;;1.25;1.15;;;;;;;8.92;74.38;97274.69;5059540;28;20041;-82
2023/02/19 08:54:07;;;;;;;5.38;3.25;;;;;;;8.93;73.86;97284.16;5056568;28;20131;-87
2023/02/19 08:56:35;;;;;;;1.63;1.02;;;;;;;8.90;74.49;97287.88;5058393;28;20134;-77
2023/02/19 08:59:02;;;;;;;1.90;1.15;;;;;;;8.93;74.88;97286.75;5057753;28;20055;-80
2023/02/19 09:01:30;;;;;;;1.17;1.00;;;;;;;9.00;74.57;97285.97;5059889;28;20059;-78
2023/02/19 09:03:57;;;;;;;1.60;1.13;;;;;;;9.03;74.21;97283.06;5057904;28;20041;-81
2023/02/19 09:06:26;;;;;;;0.80;0.80;;;;;;;9.05;73.88;97286.34;5059946;28;20049;-78
2023/02/19 09:08:54;;;;;;;1.45;1.35;;;;;;;9.09;74.10;97289.44;5060983;28;20073;-78
2023/02/19 09:11:22;;;;;;;0.90;0.90;;;;;;;9.13;73.71;97295.16;5058617;28;20041;-77
2023/02/19 09:13:49;;;;;;;1.85;0.85;;;;;;;9.11;73.31;97294.47;5053280;28;20061;-78
2023/02/19 09:16:17;;;;;;;1.58;1.13;;;;;;;9.11;73.27;97297.09;5062250;28;20059;-79
2023/02/19 09:18:45;;;;;;;20.52;13.07;;;;;;;9.19;73.26;97303.16;5060094;28;20593;-76
2023/02/19 09:21:13;;;;;;;1.88;1.70;;;;;;;9.24;72.73;97289.66;5057550;28;20135;-78
2023/02/19 09:23:42;;;;;;;1.58;1.40;;;;;;;9.28;72.41;97302.22;5058476;28;20051;-77
2023/02/19 09:26:10;;;;;;;1.88;1.20;;;;;;;9.32;72.79;97307.94;5058906;28;20462;-78
2023/02/19 09:28:40;;;;;;;1.85;1.05;;;;;;;9.34;72.05;97306.00;5062165;28;20068;-77
2023/02/19 09:31:10;;;;;;;1.35;1.20;;;;;;;9.33;72.06;97306.94;5050566;28;20120;-78
2023/02/19 09:33:42;;;;;;;2.05;1.23;;;;;;;9.36;71.67;97330.09;5058314;28;20052;-79
2023/02/19 09:36:09;;;;;;;1.60;1.00;;;;;;;9.39;71.72;97319.34;5059832;28;20187;-79
2023/02/19 09:38:38;;;;;;;2.50;1.48;;;;;;;9.41;71.29;97320.00;5051111;28;20048;-77
2023/02/19 09:41:13;;;;;;;0.80;0.80;;;;;;;9.40;71.15;97323.59;5051141;28;20048;-78
2023/02/19 09:43:42;;;;;;;1.85;1.13;;;;;;;9.38;71.25;97333.34;5026041;28;20123;-77
2023/02/19 09:46:23;;;;;;;2.05;1.10;;;;;;;9.39;71.15;97337.56;5024658;28;20048;-78
2023/02/19 09:48:52;;;;;;;2.58;1.27;;;;;;;9.38;71.36;97338.56;5031545;28;20507;-77
2023/02/19 09:51:21;;;;;;;1.15;0.73;;;;;;;9.40;71.18;97344.44;5047733;28;20041;-80
2023/02/19 09:53:52;;;;;;;0.90;0.90;;;;;;;9.45;70.84;97343.97;5065810;28;20052;-79
2023/02/19 09:56:21;;;;;;;14.90;10.10;;;;;;;9.46;71.49;97351.59;5046933;28;20069;-80
2023/02/19 09:58:50;;;;;;;2.75;1.70;;;;;;;9.44;70.95;97350.94;5056404;28;20056;-79
2023/02/19 10:01:18;;;;;;;4.50;2.33;;;;;;;9.41;70.92;97348.66;5060442;28;20117;-78
2023/02/19 10:03:48;;;;;;;1.38;1.27;;;;;;;9.41;70.63;97364.28;5061481;28;20045;-80
2023/02/19 10:06:20;;;;;;;1.40;1.30;;;;;;;9.33;70.22;97360.81;5058626;28;20506;-79
2023/02/19 10:08:50;;;;;;;1.10;0.85;;;;;;;9.31;70.53;97368.75;5057547;28;20111;-78
2023/02/19 10:11:18;;;;;;;2.17;1.10;;;;;;;9.28;70.83;97363.88;5057113;28;20055;-79
2023/02/19 10:13:49;;;;;;;1.10;1.08;;;;;;;9.30;70.61;97361.94;5058406;28;20132;-79
2023/02/19 10:16:20;;;;;;;2.30;1.42;;;;;;;9.34;70.60;97362.47;5056487;28;20430;-77
2023/02/19 10:18:48;;;;;;;2.10;1.50;;;;;;;9.39;70.60;97373.22;5041922;28;20049;-76
2023/02/19 10:21:19;;;;;;;1.48;1.25;;;;;;;9.42;70.62;97357.28;5054764;28;20056;-76
2023/02/19 10:23:50;;;;;;;0.85;0.85;;;;;;;9.47;70.66;97345.44;5037556;28;20521;-76
2023/02/19 10:26:18;;;;;;;1.20;1.13;;;;;;;9.56;70.79;97353.28;5045960;28;20121;-78
2023/02/19 10:28:47;;;;;;;1.58;1.20;;;;;;;9.61;70.38;97338.78;5055052;28;20128;-77
2023/02/19 10:31:18;;;;;;;1.13;0.80;;;;;;;9.64;70.04;97348.09;5055976;28;20128;-77
2023/02/19 10:33:50;;;;;;;0.93;0.93;;;;;;;9.67;69.96;97361.63;5055120;28;20302;-78
2023/02/19 10:36:26;;;;;;;23.65;13.55;;;;;;;9.69;69.80;97382.31;5048577;28;20179;-78
2023/02/19 10:39:15;;;;;;;3.42;2.00;;;;;;;9.70;70.16;97376.13;5056866;28;20057;-80
2023/02/19 10:41:43;;;;;;;1.88;1.40;;;;;;;9.68;69.89;97368.44;5061902;28;20044;-79
2023/02/19 10:44:16;;;;;;;1.60;1.05;;;;;;;9.69;69.35;97383.13;5060951;28;20568;-85
2023/02/19 10:46:46;;;;;;;1.80;1.17;;;;;;;9.75;69.72;97379.09;5062705;28;20491;-81
2023/02/19 10:49:23;;;;;;;4.55;1.27;;;;;;;9.78;68.03;97381.38;5057123;28;20598;-80
2023/02/19 10:51:53;;;;;;;2.85;1.45;;;;;;;9.80;67.98;97383.81;5059584;28;20052;-79
2023/02/19 10:54:29;;;;;;;1.63;0.80;;;;;;;9.77;67.62;97392.75;5059698;28;20049;-79
2023/02/19 10:57:16;;;;;;;1.35;0.80;;;;;;;9.70;66.77;97396.97;5052719;28;20064;-79
2023/02/19 10:59:51;;;;;;;1.33;0.93;;;;;;;9.66;66.95;97403.44;5059439;28;20069;-79
2023/02/19 11:02:20;;;;;;;1.63;0.90;;;;;;;9.63;67.43;97398.56;5055904;28;20425;-77
2023/02/19 11:05:04;;;;;;;1.23;0.98;;;;;;;9.67;66.98;97400.69;5057958;28;20045;-79
2023/02/19 11:07:33;;;;;;;2.00;0.80;;;;;;;9.70;67.70;97394.34;5056024;28;20056;-78
2023/02/19 11:10:01;;;;;;;1.02;0.73;;;;;;;9.77;67.34;97384.13;5057388;28;20049;-77
2023/02/19 11:12:30;;;;;;;2.05;1.00;;;;;;;9.79;67.20;97380.38;5056248;28;20049;-81
2023/02/19 11:15:13;;;;;;;2.65;0.77;;;;;;;9.82;66.40;97382.69;5056045;28;20041;-79
2023/02/19 11:17:40;;;;;;;5.18;1.33;;;;;;;9.88;67.06;97376.00;5037638;28;20167;-78
2023/02/19 11:20:16;;;;;;;3.05;0.90;;;;;;;9.94;66.10;97380.59;5041908;28;20123;-79
2023/02/19 11:22:45;;;;;;;2.47;0.88;;;;;;;9.90;66.19;97371.47;5056129;28;20052;-78
2023/02/19 11:25:24;;;;;;;2.63;0.98;;;;;;;9.86;65.31;97389.22;5056967;28;20457;-79
2023/02/19 11:27:56;;;;;;;1.20;0.68;;;;;;;9.79;65.38;97382.16;5054351;28;20063;-78
2023/02/19 11:30:33;;;;;;;;;;;;;;;9.76;64.56;97382.50;5057869;28;20090;-78
2023/02/19 11:33:27;;;;;;;1.27;0.80;;;;;;;9.70;65.73;97383.94;5055852;28;20015;-79
2023/02/19 11:36:17;;;;;;;1.33;0.57;;;;;;;9.72;65.04;97387.19;5054277;28;20055;-78
2023/02/19 11:38:44;;;;;;;2.60;0.93;;;;;;;9.73;65.83;97391.44;5058498;28;20045;-79
2023/02/19 11:41:24;;;;;;;5.38;1.05;;;;;;;9.74;64.38;97377.44;5061951;28;20124;-79
2023/02/19 11:44:10;;;;;;;2.67;0.80;;;;;;;9.68;64.47;97376.25;5064722;28;20056;-80
2023/02/19 11:46:51;;;;;;;1.00;0.80;;;;;;;9.66;64.59;97380.00;5059008;28;20063;-79
2023/02/19 11:49:33;;;;;;;2.45;0.95;;;;;;;9.64;64.81;97392.38;5058735;28;20064;-79
2023/02/19 11:52:14;;;;;;;2.65;0.70;;;;;;;9.66;64.99;97385.22;5076905;28;20494;-79
2023/02/19 11:54:49;;;;;;;0.90;0.60;;;;;;;9.71;64.65;97385.56;5075841;28;20570;-78
2023/02/19 11:57:37;;;;;;;2.15;0.65;;;;;;;9.74;64.74;97374.03;5064116;28;20048;-79
2023/02/19 12:00:20;;;;;;;2.20;0.80;;;;;;;9.74;64.69;97395.69;5062416;28;20072;-80
2023/02/19 12:03:00;;;;;;;4.95;0.82;;;;;;;9.76;64.97;97395.53;5049710;28;20163;-78
2023/02/19 12:05:35;;;;;;;1.75;0.60;;;;;;;9.81;64.65;97401.06;5060233;28;20059;-80
2023/02/19 12:08:25;;;;;;;15.15;7.88;;;;;;;9.86;64.45;97394.44;5060669;28;20055;-78
2023/02/19 12:11:10;;;;;;;4.05;2.25;;;;;;;9.93;64.23;97399.00;5055100;28;20055;-78
2023/02/19 12:13:56;;;;;;;1.95;0.90;;;;;;;9.95;63.78;97382.25;5057203;28;20499;-77
2023/02/19 12:16:30;;;;;;;3.30;1.13;;;;;;;9.98;64.37;97381.09;5057300;28;20586;-76
2023/02/19 12:19:19;;;;;;;1.85;0.73;;;;;;;10.05;64.28;97392.53;5058044;28;20045;-81
2023/02/19 12:22:04;;;;;;;2.50;0.90;;;;;;;10.16;63.63;97394.00;5059992;28;20049;-77